createdAt,value
2022-12-24T00:02:05.085Z,14.00
2022-12-24T00:04:32.060Z,13.90
2022-12-24T00:06:58.734Z,13.90
2022-12-24T00:09:25.399Z,13.90
2022-12-24T00:11:52.304Z,13.90
2022-12-24T00:14:19.171Z,13.90
2022-12-24T00:16:45.924Z,13.90
2022-12-24T00:19:12.643Z,13.80
2022-12-24T00:21:39.312Z,13.80
2022-12-24T00:24:05.980Z,13.80
2022-12-24T00:26:32.647Z,13.80
2022-12-24T00:28:59.304Z,13.80
2022-12-24T00:31:26.037Z,13.70
2022-12-24T00:33:52.725Z,13.70
2022-12-24T00:36:19.388Z,13.70
2022-12-24T00:38:46.054Z,13.70
2022-12-24T00:41:12.958Z,13.70
2022-12-24T00:43:39.835Z,13.60
2022-12-24T00:46:06.547Z,13.60
2022-12-24T00:48:33.263Z,13.60
2022-12-24T00:51:00.016Z,13.60
2022-12-24T00:53:26.970Z,13.60
2022-12-24T00:55:53.854Z,13.60
2022-12-24T00:58:20.766Z,13.50
2022-12-24T01:00:47.435Z,13.50
2022-12-24T01:03:14.263Z,13.50
2022-12-24T01:05:41.062Z,13.50
2022-12-24T01:08:07.779Z,13.50
2022-12-24T01:10:34.464Z,13.50
2022-12-24T01:13:01.153Z,13.40
2022-12-24T01:15:28.083Z,13.40
2022-12-24T01:17:54.961Z,13.40
2022-12-24T01:20:22.319Z,13.40
2022-12-24T01:22:49.008Z,13.40
2022-12-24T01:25:15.688Z,13.30
2022-12-24T01:27:42.360Z,13.30
2022-12-24T01:30:09.042Z,13.30
2022-12-24T01:32:35.944Z,13.30
2022-12-24T01:35:02.606Z,13.30
2022-12-24T01:37:29.285Z,13.30
2022-12-24T01:39:55.975Z,13.20
2022-12-24T01:42:22.632Z,13.20
2022-12-24T01:44:49.313Z,13.20
2022-12-24T01:47:15.976Z,13.20
2022-12-24T01:49:42.855Z,13.20
2022-12-24T01:52:09.531Z,13.20
2022-12-24T01:54:36.213Z,13.10
2022-12-24T01:57:02.881Z,13.10
2022-12-24T01:59:29.634Z,13.10
2022-12-24T02:01:56.403Z,13.10
2022-12-24T02:04:23.405Z,13.10
2022-12-24T02:06:50.060Z,13.10
2022-12-24T02:09:16.784Z,13.00
2022-12-24T02:11:43.449Z,13.00
2022-12-24T02:14:10.319Z,13.00
2022-12-24T02:16:37.036Z,13.00
2022-12-24T02:19:03.823Z,13.00
2022-12-24T02:21:30.481Z,13.00
2022-12-24T02:23:57.138Z,13.00
2022-12-24T02:26:24.057Z,12.90
2022-12-24T02:28:50.719Z,12.90
2022-12-24T02:31:17.619Z,12.90
2022-12-24T02:33:44.312Z,12.90
2022-12-24T02:36:10.996Z,12.90
2022-12-24T02:38:37.881Z,12.80
2022-12-24T02:41:04.533Z,12.90
2022-12-24T02:43:31.211Z,12.80
2022-12-24T02:45:59.557Z,12.80
2022-12-24T02:48:26.391Z,12.80
2022-12-24T02:50:53.035Z,12.80
2022-12-24T02:53:20.030Z,12.80
2022-12-24T02:55:46.703Z,12.70
2022-12-24T02:58:13.544Z,12.70
2022-12-24T03:00:41.073Z,12.70
2022-12-24T03:03:08.031Z,12.70
2022-12-24T03:05:34.772Z,12.70
2022-12-24T03:08:02.064Z,12.70
2022-12-24T03:10:28.715Z,12.70
2022-12-24T03:12:55.563Z,12.70
2022-12-24T03:15:22.230Z,12.60
2022-12-24T03:17:49.079Z,12.60
2022-12-24T03:20:15.732Z,12.60
2022-12-24T03:22:42.378Z,12.60
2022-12-24T03:25:09.036Z,12.60
2022-12-24T03:27:35.704Z,12.60
2022-12-24T03:30:02.414Z,12.50
2022-12-24T03:32:29.091Z,12.50
2022-12-24T03:34:55.743Z,12.50
2022-12-24T03:37:22.395Z,12.50
2022-12-24T03:42:35.621Z,12.40
2022-12-24T03:45:02.490Z,12.40
2022-12-24T03:47:29.149Z,12.40
2022-12-24T03:49:55.810Z,12.40
2022-12-24T03:52:22.678Z,12.40
2022-12-24T03:54:49.373Z,12.40
2022-12-24T03:57:16.025Z,12.40
2022-12-24T03:59:42.690Z,12.40
2022-12-24T04:02:09.649Z,12.30
2022-12-24T04:04:36.383Z,12.30
2022-12-24T04:07:03.029Z,12.30
2022-12-24T04:09:29.684Z,12.30
2022-12-24T04:11:56.307Z,12.30
2022-12-24T04:14:22.936Z,12.30
2022-12-24T04:16:49.662Z,12.30
2022-12-24T04:19:16.340Z,12.20
2022-12-24T04:21:42.986Z,12.20
2022-12-24T04:24:09.636Z,12.20
2022-12-24T04:26:36.294Z,12.20
2022-12-24T04:29:02.939Z,12.20
2022-12-24T04:31:29.622Z,12.10
2022-12-24T04:33:56.323Z,12.10
2022-12-24T04:36:22.957Z,12.10
2022-12-24T04:38:49.637Z,12.10
2022-12-24T04:41:23.358Z,12.10
2022-12-24T04:43:50.725Z,12.10
2022-12-24T04:46:17.387Z,12.10
2022-12-24T04:48:44.077Z,12.10
2022-12-24T04:51:10.716Z,12.10
2022-12-24T04:53:37.394Z,12.00
2022-12-24T04:56:04.040Z,12.00
2022-12-24T04:58:30.725Z,12.00
2022-12-24T05:00:57.414Z,12.00
2022-12-24T05:03:24.242Z,12.00
2022-12-24T05:05:54.035Z,12.00
2022-12-24T05:08:23.156Z,11.90
2022-12-24T05:10:49.791Z,11.90
2022-12-24T05:13:16.443Z,11.90
2022-12-24T05:15:43.092Z,11.90
2022-12-24T05:18:09.733Z,11.90
2022-12-24T05:20:36.584Z,11.90
2022-12-24T05:23:03.222Z,11.90
2022-12-24T05:25:30.076Z,11.90
2022-12-24T05:27:56.736Z,11.80
2022-12-24T05:30:23.381Z,11.80
2022-12-24T05:32:50.019Z,11.80
2022-12-24T05:35:16.676Z,11.80
2022-12-24T05:37:43.309Z,11.80
2022-12-24T05:40:09.957Z,11.80
2022-12-24T05:42:36.784Z,11.80
2022-12-24T05:45:03.595Z,11.80
2022-12-24T05:47:30.507Z,11.70
2022-12-24T05:49:57.165Z,11.70
2022-12-24T05:52:23.827Z,11.70
2022-12-24T05:54:50.471Z,11.60
2022-12-24T05:57:17.135Z,11.50
2022-12-24T05:59:43.798Z,11.50
2022-12-24T06:02:10.545Z,11.40
2022-12-24T06:04:37.251Z,11.40
2022-12-24T06:07:03.937Z,11.40
2022-12-24T06:09:30.576Z,11.40
2022-12-24T06:11:57.213Z,11.30
2022-12-24T06:14:24.078Z,11.40
2022-12-24T06:16:50.752Z,11.30
2022-12-24T06:19:17.402Z,11.30
2022-12-24T06:21:44.042Z,11.30
2022-12-24T06:24:10.922Z,11.30
2022-12-24T06:26:37.569Z,11.30
2022-12-24T06:29:04.225Z,11.40
2022-12-24T06:31:30.922Z,11.40
2022-12-24T06:33:57.845Z,11.30
2022-12-24T06:36:24.606Z,11.30
2022-12-24T06:38:51.270Z,11.30
2022-12-24T06:41:17.946Z,11.30
2022-12-24T06:43:44.797Z,11.30
2022-12-24T06:46:11.464Z,11.30
2022-12-24T06:48:38.131Z,11.20
2022-12-24T06:51:04.775Z,11.20
2022-12-24T06:53:31.429Z,11.20
2022-12-24T06:55:58.092Z,11.20
2022-12-24T06:58:24.750Z,11.20
2022-12-24T07:00:51.404Z,11.20
2022-12-24T07:03:18.117Z,11.20
2022-12-24T07:05:44.831Z,11.10
2022-12-24T07:08:11.481Z,11.10
2022-12-24T07:10:38.111Z,11.10
2022-12-24T07:13:04.757Z,11.10
2022-12-24T07:15:31.417Z,11.10
2022-12-24T07:17:58.062Z,11.10
2022-12-24T07:20:24.932Z,11.10
2022-12-24T07:22:51.584Z,11.10
2022-12-24T07:25:18.241Z,11.00
2022-12-24T07:27:44.901Z,11.10
2022-12-24T07:30:11.575Z,11.10
2022-12-24T07:32:38.459Z,11.10
2022-12-24T07:35:05.130Z,11.20
2022-12-24T07:37:31.781Z,10.90
2022-12-24T07:39:58.412Z,10.40
2022-12-24T07:42:25.309Z,10.30
2022-12-24T07:44:51.970Z,10.30
2022-12-24T07:47:18.882Z,10.60
2022-12-24T07:49:45.556Z,10.70
2022-12-24T07:52:12.214Z,10.80
2022-12-24T07:54:38.881Z,10.90
2022-12-24T07:57:05.814Z,10.80
2022-12-24T07:59:32.481Z,10.90
2022-12-24T08:01:59.441Z,10.90
2022-12-24T08:04:26.324Z,11.00
2022-12-24T08:06:52.969Z,11.00
2022-12-24T08:09:19.625Z,11.00
2022-12-24T08:11:51.670Z,10.90
2022-12-24T08:14:19.012Z,11.00
2022-12-24T08:16:45.758Z,11.00
2022-12-24T08:19:12.479Z,11.00
2022-12-24T08:21:39.129Z,11.00
2022-12-24T08:24:05.756Z,11.00
2022-12-24T08:26:32.388Z,11.10
2022-12-24T08:28:59.010Z,11.10
2022-12-24T08:31:25.717Z,11.00
2022-12-24T08:33:52.395Z,11.10
2022-12-24T08:36:19.047Z,11.10
2022-12-24T08:38:45.707Z,11.10
2022-12-24T08:41:12.379Z,11.20
2022-12-24T08:43:39.033Z,11.20
2022-12-24T08:46:05.767Z,11.30
2022-12-24T08:48:32.446Z,11.40
2022-12-24T08:50:59.080Z,11.40
2022-12-24T08:53:25.757Z,11.30
2022-12-24T08:55:56.210Z,11.20
2022-12-24T08:58:23.081Z,11.20
2022-12-24T09:00:49.811Z,11.20
2022-12-24T09:03:18.470Z,11.20
2022-12-24T09:05:50.185Z,11.30
2022-12-24T09:08:16.864Z,11.40
2022-12-24T09:10:43.508Z,11.40
2022-12-24T09:13:10.145Z,11.30
2022-12-24T09:15:36.786Z,11.40
2022-12-24T09:18:03.442Z,11.40
2022-12-24T09:20:30.151Z,11.50
2022-12-24T09:22:56.819Z,11.60
2022-12-24T09:25:23.481Z,11.70
2022-12-24T09:27:50.336Z,11.70
2022-12-24T09:30:16.996Z,11.70
2022-12-24T09:32:43.628Z,11.70
2022-12-24T09:35:10.276Z,11.70
2022-12-24T09:37:36.907Z,11.60
2022-12-24T09:40:03.569Z,11.60
2022-12-24T09:42:30.224Z,11.70
2022-12-24T09:44:56.940Z,11.80
2022-12-24T09:47:23.602Z,11.80
2022-12-24T09:49:50.483Z,11.70
2022-12-24T09:52:17.140Z,11.70
2022-12-24T09:54:49.343Z,11.70
2022-12-24T09:57:16.735Z,11.70
2022-12-24T09:59:43.638Z,11.70
2022-12-24T10:02:10.357Z,11.70
2022-12-24T10:04:37.071Z,11.70
2022-12-24T10:07:03.719Z,11.70
2022-12-24T10:09:30.354Z,11.80
2022-12-24T10:11:57.210Z,11.70
2022-12-24T10:14:23.875Z,11.80
2022-12-24T10:16:50.807Z,11.80
2022-12-24T10:19:17.563Z,11.80
2022-12-24T10:21:44.217Z,11.80
2022-12-24T10:24:11.080Z,11.80
2022-12-24T10:26:37.777Z,11.80
2022-12-24T10:29:04.437Z,11.90
2022-12-24T10:31:31.110Z,11.90
2022-12-24T10:33:57.774Z,11.90
2022-12-24T10:36:24.420Z,11.90
2022-12-24T10:38:51.019Z,11.90
2022-12-24T10:41:17.663Z,11.90
2022-12-24T10:43:44.515Z,12.00
2022-12-24T10:46:11.264Z,12.00
2022-12-24T10:48:37.994Z,12.00
2022-12-24T10:51:04.640Z,12.00
2022-12-24T10:53:31.282Z,12.00
2022-12-24T10:55:57.923Z,12.10
2022-12-24T10:58:24.578Z,12.00
2022-12-24T11:00:51.236Z,12.10
2022-12-24T11:03:17.944Z,12.10
2022-12-24T11:05:44.587Z,12.10
2022-12-24T11:08:11.252Z,12.10
2022-12-24T11:10:37.917Z,12.10
2022-12-24T11:13:36.400Z,12.20
2022-12-24T11:15:51.469Z,12.20
2022-12-24T11:18:18.138Z,12.20
2022-12-24T11:20:44.799Z,12.20
2022-12-24T11:23:11.453Z,12.20
2022-12-24T11:25:38.117Z,12.30
2022-12-24T11:28:04.790Z,12.30
2022-12-24T11:30:31.459Z,12.30
2022-12-24T11:35:44.772Z,12.30
2022-12-24T11:38:11.465Z,12.30
2022-12-24T11:40:38.123Z,12.40
2022-12-24T11:43:08.287Z,12.50
2022-12-24T11:45:39.426Z,12.50
2022-12-24T11:48:06.101Z,12.50
2022-12-24T11:50:32.734Z,12.50
2022-12-24T11:52:59.672Z,12.50
2022-12-24T11:55:26.313Z,12.50
2022-12-24T11:57:52.939Z,12.50
2022-12-24T12:00:19.589Z,12.50
2022-12-24T12:02:46.267Z,12.50
2022-12-24T12:05:13.111Z,12.50
2022-12-24T12:07:39.747Z,12.50
2022-12-24T12:10:06.621Z,12.50
2022-12-24T12:12:33.283Z,12.50
2022-12-24T12:15:00.047Z,12.50
2022-12-24T12:17:26.731Z,12.50
2022-12-24T12:19:53.400Z,12.50
2022-12-24T12:22:20.053Z,12.50
2022-12-24T12:24:46.707Z,12.50
2022-12-24T12:27:13.335Z,12.50
2022-12-24T12:29:39.957Z,12.60
2022-12-24T12:32:06.838Z,12.60
2022-12-24T12:34:33.499Z,12.60
2022-12-24T12:37:00.134Z,12.50
2022-12-24T12:39:26.797Z,12.50
2022-12-24T12:41:53.457Z,12.50
2022-12-24T12:44:20.753Z,12.50
2022-12-24T12:46:47.663Z,12.50
2022-12-24T12:49:14.320Z,12.50
2022-12-24T12:51:40.975Z,12.50
2022-12-24T12:54:07.613Z,12.50
2022-12-24T12:56:34.500Z,12.50
2022-12-24T12:59:01.164Z,12.50
2022-12-24T13:01:32.872Z,12.50
2022-12-24T13:03:59.974Z,12.50
2022-12-24T13:06:26.613Z,12.50
2022-12-24T13:08:53.452Z,12.50
2022-12-24T13:11:20.176Z,12.50
2022-12-24T13:13:47.037Z,12.50
2022-12-24T13:16:13.786Z,12.60
2022-12-24T13:18:40.427Z,12.70
2022-12-24T13:21:07.263Z,12.70
2022-12-24T13:23:34.289Z,12.70
2022-12-24T13:26:00.961Z,12.70
2022-12-24T13:28:27.876Z,12.70
2022-12-24T13:30:54.522Z,12.70
2022-12-24T13:33:21.376Z,12.60
2022-12-24T13:35:48.084Z,12.60
2022-12-24T13:38:14.751Z,12.60
2022-12-24T13:40:41.385Z,12.60
2022-12-24T13:43:08.032Z,12.60
2022-12-24T13:45:34.718Z,12.50
2022-12-24T13:48:02.119Z,12.50
2022-12-24T13:50:29.414Z,12.60
2022-12-24T13:52:56.461Z,12.60
2022-12-24T13:55:23.198Z,12.70
2022-12-24T13:57:50.039Z,12.70
2022-12-24T14:00:16.707Z,12.70
2022-12-24T14:02:43.676Z,12.70
2022-12-24T14:05:10.676Z,12.70
2022-12-24T14:07:37.310Z,12.60
2022-12-24T14:10:03.957Z,12.70
2022-12-24T14:12:30.587Z,12.70
2022-12-24T14:14:57.425Z,12.70
2022-12-24T14:17:25.116Z,12.70
2022-12-24T14:19:51.809Z,12.80
2022-12-24T14:22:18.461Z,12.70
2022-12-24T14:24:45.093Z,12.70
2022-12-24T14:27:11.737Z,12.70
2022-12-24T14:29:38.373Z,12.60
2022-12-24T14:32:05.085Z,12.70
2022-12-24T14:34:31.812Z,12.60
2022-12-24T14:36:58.506Z,12.60
2022-12-24T14:39:25.170Z,12.60
2022-12-24T14:41:51.864Z,12.60
2022-12-24T14:44:18.767Z,12.60
2022-12-24T14:46:45.419Z,12.50
2022-12-24T14:49:12.070Z,12.60
2022-12-24T14:51:38.801Z,12.70
2022-12-24T14:54:05.466Z,12.70
2022-12-24T14:56:32.145Z,12.70
2022-12-24T14:58:58.788Z,12.70
2022-12-24T15:01:25.546Z,12.70
2022-12-24T15:03:52.516Z,12.70
2022-12-24T15:06:19.152Z,12.60
2022-12-24T15:08:45.792Z,12.60
2022-12-24T15:11:12.426Z,12.60
2022-12-24T15:13:39.108Z,12.60
2022-12-24T15:16:05.791Z,12.50
2022-12-24T15:18:32.717Z,12.50
2022-12-24T15:21:03.975Z,12.50
2022-12-24T15:23:31.337Z,12.40
2022-12-24T15:25:57.972Z,12.30
2022-12-24T15:28:24.614Z,12.30
2022-12-24T15:30:51.293Z,12.30
2022-12-24T15:33:17.999Z,12.20
2022-12-24T15:35:44.660Z,12.20
2022-12-24T15:38:16.040Z,12.20
2022-12-24T15:40:45.269Z,12.20
2022-12-24T15:43:12.137Z,12.20
2022-12-24T15:45:38.865Z,12.20
2022-12-24T15:48:05.515Z,12.10
2022-12-24T15:50:32.152Z,12.10
2022-12-24T15:53:20.104Z,12.10
2022-12-24T15:55:45.645Z,12.10
2022-12-24T15:58:12.279Z,12.00
2022-12-24T16:00:38.926Z,12.00
2022-12-24T16:03:06.063Z,12.00
2022-12-24T16:05:32.850Z,12.00
2022-12-24T16:07:59.705Z,12.00
2022-12-24T16:10:26.544Z,12.00
2022-12-24T16:12:53.246Z,12.00
2022-12-24T16:15:19.929Z,12.10
2022-12-24T16:17:46.571Z,12.00
2022-12-24T16:20:13.417Z,11.40
2022-12-24T16:22:40.054Z,11.30
2022-12-24T16:25:07.425Z,11.60
2022-12-24T16:27:34.163Z,11.80
2022-12-24T16:30:01.423Z,11.80
2022-12-24T16:32:28.080Z,11.90
2022-12-24T16:34:54.719Z,12.00
2022-12-24T16:37:21.377Z,12.10
2022-12-24T16:39:48.044Z,12.10
2022-12-24T16:42:14.687Z,12.10
2022-12-24T16:44:41.337Z,12.10
2022-12-24T16:47:07.980Z,12.10
2022-12-24T16:49:34.637Z,12.10
2022-12-24T16:52:01.297Z,12.10
2022-12-24T16:54:27.970Z,12.20
2022-12-24T16:56:54.630Z,12.20
2022-12-24T16:59:21.271Z,12.10
2022-12-24T17:01:48.002Z,12.10
2022-12-24T17:04:14.966Z,12.10
2022-12-24T17:06:41.636Z,12.10
2022-12-24T17:09:08.317Z,12.10
2022-12-24T17:11:34.988Z,12.20
2022-12-24T17:14:07.878Z,12.20
2022-12-24T17:16:35.452Z,12.30
2022-12-24T17:19:02.148Z,12.20
2022-12-24T17:21:28.794Z,12.40
2022-12-24T17:23:55.425Z,12.40
2022-12-24T17:26:22.082Z,12.40
2022-12-24T17:28:48.728Z,12.30
2022-12-24T17:31:15.408Z,12.30
2022-12-24T17:33:42.106Z,12.30
2022-12-24T17:36:08.759Z,12.30
2022-12-24T17:38:35.640Z,12.30
2022-12-24T17:41:02.510Z,12.40
2022-12-24T17:43:29.174Z,12.40
2022-12-24T17:45:58.557Z,12.50
2022-12-24T17:48:25.226Z,12.50
2022-12-24T17:50:52.099Z,12.60
2022-12-24T17:53:18.772Z,12.60
2022-12-24T17:55:45.652Z,12.60
2022-12-24T17:58:12.492Z,12.50
2022-12-24T18:00:39.336Z,12.50
2022-12-24T18:03:06.101Z,12.60
2022-12-24T18:05:32.845Z,12.80
2022-12-24T18:07:59.808Z,12.80
2022-12-24T18:10:26.440Z,12.70
2022-12-24T18:12:53.078Z,12.70
2022-12-24T18:15:19.743Z,12.80
2022-12-24T18:17:46.382Z,12.90
2022-12-24T18:20:13.035Z,12.90
2022-12-24T18:22:39.799Z,12.90
2022-12-24T18:25:06.782Z,12.90
2022-12-24T18:27:33.424Z,12.80
2022-12-24T18:30:00.069Z,12.80
2022-12-24T18:32:26.741Z,12.70
2022-12-24T18:34:53.383Z,12.70
2022-12-24T18:37:20.030Z,12.70
2022-12-24T18:39:46.694Z,12.80
2022-12-24T18:42:13.350Z,12.80
2022-12-24T18:44:39.999Z,12.80
2022-12-24T18:47:06.705Z,12.90
2022-12-24T18:49:33.948Z,13.20
2022-12-24T18:52:00.625Z,13.40
2022-12-24T18:54:27.273Z,13.40
2022-12-24T18:56:53.923Z,13.30
2022-12-24T18:59:20.653Z,13.20
2022-12-24T19:01:47.487Z,13.20
2022-12-24T19:04:14.333Z,13.20
2022-12-24T19:06:40.970Z,13.20
2022-12-24T19:09:07.605Z,13.20
2022-12-24T19:11:34.288Z,13.20
2022-12-24T19:14:00.970Z,13.30
2022-12-24T19:16:27.750Z,13.30
2022-12-24T19:18:54.501Z,13.40
2022-12-24T19:21:21.156Z,13.40
2022-12-24T19:23:47.915Z,13.40
2022-12-24T19:26:14.584Z,13.50
2022-12-24T19:28:41.226Z,13.50
2022-12-24T19:31:08.129Z,13.50
2022-12-24T19:33:38.964Z,13.60
2022-12-24T19:36:09.160Z,13.60
2022-12-24T19:38:35.896Z,13.70
2022-12-24T19:41:03.147Z,13.80
2022-12-24T19:43:30.181Z,14.00
2022-12-24T19:45:56.955Z,14.60
2022-12-24T19:48:23.705Z,14.70
2022-12-24T19:50:50.406Z,14.50
2022-12-24T19:53:17.177Z,14.50
2022-12-24T19:55:44.015Z,14.40
2022-12-24T19:58:10.680Z,14.30
2022-12-24T20:00:37.608Z,14.20
2022-12-24T20:03:04.410Z,14.20
2022-12-24T20:05:31.180Z,14.40
2022-12-24T20:07:57.874Z,14.40
2022-12-24T20:10:24.531Z,14.40
2022-12-24T20:12:51.497Z,14.50
2022-12-24T20:15:18.274Z,14.50
2022-12-24T20:17:45.122Z,14.60
2022-12-24T20:20:11.765Z,14.70
2022-12-24T20:22:39.226Z,14.70
2022-12-24T20:25:05.874Z,14.80
2022-12-24T20:27:32.707Z,14.80
2022-12-24T20:29:59.344Z,14.90
2022-12-24T20:32:26.301Z,15.00
2022-12-24T20:34:53.036Z,15.00
2022-12-24T20:37:19.890Z,15.00
2022-12-24T20:39:46.560Z,15.10
2022-12-24T20:42:13.232Z,15.10
2022-12-24T20:44:40.092Z,15.20
2022-12-24T20:47:06.923Z,15.60
2022-12-24T20:49:33.754Z,16.00
2022-12-24T20:52:00.449Z,16.00
2022-12-24T20:54:27.109Z,15.70
2022-12-24T20:56:57.729Z,15.50
2022-12-24T20:59:25.691Z,15.50
2022-12-24T21:01:52.568Z,15.50
2022-12-24T21:04:19.427Z,15.50
2022-12-24T21:06:46.092Z,15.50
2022-12-24T21:09:12.921Z,15.50
2022-12-24T21:11:39.711Z,15.50
2022-12-24T21:14:06.581Z,15.50
2022-12-24T21:16:33.285Z,15.60
2022-12-24T21:18:59.992Z,15.60
2022-12-24T21:21:26.811Z,15.70
2022-12-24T21:23:53.736Z,16.40
2022-12-24T21:26:20.486Z,16.30
2022-12-24T21:28:47.263Z,16.10
2022-12-24T21:31:13.979Z,16.00
2022-12-24T21:33:40.701Z,16.10
2022-12-24T21:36:07.372Z,16.10
2022-12-24T21:38:34.037Z,16.00
2022-12-24T21:41:00.700Z,16.10
2022-12-24T21:43:27.359Z,16.00
2022-12-24T21:45:54.005Z,16.50
2022-12-24T21:48:20.700Z,16.60
2022-12-24T21:50:47.366Z,16.40
2022-12-24T21:53:14.024Z,16.40
2022-12-24T21:55:40.666Z,16.30
2022-12-24T21:58:07.302Z,16.30
2022-12-24T22:00:33.950Z,16.20
2022-12-24T22:03:00.738Z,16.20
2022-12-24T22:05:27.480Z,16.20
2022-12-24T22:07:54.166Z,16.20
2022-12-24T22:10:20.824Z,16.20
2022-12-24T22:12:47.476Z,16.20
2022-12-24T22:15:14.112Z,16.20
2022-12-24T22:17:40.785Z,16.20
2022-12-24T22:20:07.461Z,16.20
2022-12-24T22:22:34.295Z,16.20
2022-12-24T22:25:00.940Z,16.20
2022-12-24T22:27:27.587Z,16.20
2022-12-24T22:29:54.234Z,16.20
2022-12-24T22:32:20.892Z,16.20
2022-12-24T22:34:47.536Z,16.20
2022-12-24T22:37:14.402Z,16.20
2022-12-24T22:39:41.066Z,16.20
2022-12-24T22:42:07.731Z,16.20
2022-12-24T22:44:34.383Z,16.20
2022-12-24T22:47:01.037Z,16.20
2022-12-24T22:49:27.879Z,16.20
2022-12-24T22:51:54.509Z,16.20
2022-12-24T22:54:21.161Z,16.20
2022-12-24T22:56:47.828Z,16.20
2022-12-24T22:59:14.504Z,16.20
2022-12-24T23:01:41.300Z,16.10
2022-12-24T23:04:08.061Z,16.10
2022-12-24T23:06:34.753Z,16.10
2022-12-24T23:09:01.404Z,16.20
2022-12-24T23:11:28.071Z,16.10
2022-12-24T23:13:54.729Z,16.10
2022-12-24T23:16:21.436Z,16.10
2022-12-24T23:18:48.170Z,16.10
2022-12-24T23:21:14.830Z,16.10
2022-12-24T23:23:41.485Z,16.10
2022-12-24T23:26:08.123Z,16.10
2022-12-24T23:28:34.777Z,16.00
2022-12-24T23:31:01.470Z,16.00
2022-12-24T23:33:28.169Z,16.00
2022-12-24T23:35:54.848Z,16.00
2022-12-24T23:38:21.485Z,16.00
2022-12-24T23:40:48.126Z,16.00
2022-12-24T23:43:14.764Z,16.00
2022-12-24T23:45:41.417Z,16.00
2022-12-24T23:48:08.077Z,16.00
2022-12-24T23:50:34.711Z,15.90
2022-12-24T23:53:01.332Z,16.00
2022-12-24T23:55:27.991Z,15.90
2022-12-24T23:57:54.654Z,15.90
